createdAt,value
2019-03-30T00:04:31.680Z,21.43
2019-03-30T00:09:33.968Z,19.30
2019-03-30T00:14:36.256Z,19.80
2019-03-30T00:19:38.568Z,20.83
2019-03-30T00:24:40.974Z,23.10
2019-03-30T00:29:43.251Z,21.50
2019-03-30T00:34:45.538Z,18.87
2019-03-30T00:39:47.999Z,19.97
2019-03-30T00:44:50.301Z,21.23
2019-03-30T00:49:52.576Z,20.07
2019-03-30T00:54:54.875Z,24.97
2019-03-30T00:59:57.481Z,31.93
2019-03-30T01:04:59.756Z,32.53
2019-03-30T01:10:02.212Z,27.63
2019-03-30T01:15:06.193Z,30.63
2019-03-30T01:20:08.651Z,22.83
2019-03-30T01:25:11.806Z,28.13
2019-03-30T01:30:23.010Z,26.73
2019-03-30T01:35:18.455Z,26.77
2019-03-30T01:40:20.972Z,29.43
2019-03-30T01:45:23.317Z,20.37
2019-03-30T01:50:25.609Z,22.17
2019-03-30T01:55:27.892Z,28.83
2019-03-30T02:00:30.340Z,24.70
2019-03-30T02:05:32.639Z,27.20
2019-03-30T02:10:39.196Z,30.80
2019-03-30T02:15:41.621Z,23.12
2019-03-30T02:20:45.445Z,21.23
2019-03-30T02:25:47.749Z,18.20
2019-03-30T02:30:50.015Z,19.83
2019-03-30T02:35:52.379Z,16.03
2019-03-30T02:40:54.655Z,15.93
2019-03-30T02:45:56.992Z,20.07
2019-03-30T02:50:59.281Z,27.67
2019-03-30T02:56:01.576Z,16.80
2019-03-30T03:01:03.843Z,21.00
2019-03-30T03:06:06.157Z,18.73
2019-03-30T03:11:08.499Z,16.20
2019-03-30T03:16:10.785Z,19.40
2019-03-30T03:21:13.055Z,17.03
2019-03-30T03:26:15.986Z,20.37
2019-03-30T03:31:18.575Z,17.13
2019-03-30T03:36:20.853Z,15.77
2019-03-30T03:41:23.128Z,22.53
2019-03-30T03:46:25.419Z,16.80
2019-03-30T03:51:28.697Z,17.10
2019-03-30T03:56:32.249Z,19.83
2019-03-30T04:01:35.091Z,17.20
2019-03-30T04:06:38.555Z,16.07
2019-03-30T04:11:42.370Z,17.40
2019-03-30T04:16:44.805Z,17.03
2019-03-30T04:21:47.118Z,19.30
2019-03-30T04:26:49.567Z,18.17
2019-03-30T04:31:51.884Z,15.13
2019-03-30T04:36:54.212Z,17.00
2019-03-30T04:41:57.442Z,17.97
2019-03-30T04:46:59.720Z,18.97
2019-03-30T04:52:02.011Z,17.40
2019-03-30T04:57:04.295Z,18.30
2019-03-30T05:02:06.586Z,18.97
2019-03-30T05:07:08.920Z,17.10
2019-03-30T05:12:11.180Z,23.37
2019-03-30T05:17:13.479Z,20.43
2019-03-30T05:22:16.731Z,18.23
2019-03-30T05:27:19.402Z,18.33
2019-03-30T05:32:21.687Z,19.07
2019-03-30T05:37:23.995Z,18.37
2019-03-30T05:42:26.276Z,20.60
2019-03-30T05:47:28.564Z,18.30
2019-03-30T05:52:30.837Z,20.63
2019-03-30T05:57:33.175Z,19.03
2019-03-30T06:02:35.591Z,22.47
2019-03-30T06:07:37.907Z,21.20
2019-03-30T06:12:40.152Z,24.30
2019-03-30T06:17:42.901Z,20.27
2019-03-30T06:22:45.265Z,23.03
2019-03-30T06:27:47.545Z,20.00
2019-03-30T06:32:49.844Z,19.60
2019-03-30T06:37:52.111Z,20.27
2019-03-30T06:42:54.545Z,21.63
2019-03-30T06:47:56.829Z,22.00
2019-03-30T06:52:59.445Z,19.60
2019-03-30T06:58:01.757Z,26.07
2019-03-30T07:03:04.612Z,17.97
2019-03-30T07:08:08.462Z,18.90
2019-03-30T07:13:10.790Z,19.10
2019-03-30T07:18:13.851Z,19.07
2019-03-30T07:23:16.425Z,16.77
2019-03-30T07:28:18.722Z,16.90
2019-03-30T07:33:20.994Z,15.80
2019-03-30T07:38:23.376Z,14.60
2019-03-30T07:43:25.649Z,17.73
2019-03-30T07:48:27.995Z,14.25
2019-03-30T07:53:43.558Z,16.12
2019-03-30T07:58:34.386Z,15.03
2019-03-30T08:03:36.699Z,13.35
2019-03-30T08:08:39.001Z,12.47
2019-03-30T08:13:41.312Z,13.30
2019-03-30T08:18:43.568Z,12.58
2019-03-30T08:23:46.222Z,16.70
2019-03-30T08:28:48.591Z,11.57
2019-03-30T08:33:51.846Z,16.80
2019-03-30T08:38:54.172Z,12.50
2019-03-30T08:43:56.614Z,12.55
2019-03-30T08:48:58.897Z,13.40
2019-03-30T08:54:01.163Z,15.23
2019-03-30T08:59:03.441Z,11.15
2019-03-30T09:04:05.747Z,14.38
2019-03-30T09:09:08.227Z,15.43
2019-03-30T09:14:10.525Z,15.35
2019-03-30T09:19:12.860Z,14.60
2019-03-30T09:24:15.290Z,15.03
2019-03-30T09:29:17.867Z,12.98
2019-03-30T09:34:20.190Z,14.90
2019-03-30T09:39:22.486Z,14.65
2019-03-30T09:44:25.110Z,15.78
2019-03-30T09:49:27.387Z,18.20
2019-03-30T09:54:30.016Z,15.38
2019-03-30T09:59:32.370Z,18.92
2019-03-30T10:04:34.665Z,17.12
2019-03-30T10:09:36.939Z,15.58
2019-03-30T10:14:39.245Z,16.77
2019-03-30T10:19:41.555Z,21.87
2019-03-30T10:24:44.151Z,19.73
2019-03-30T10:29:46.517Z,20.40
2019-03-30T10:34:48.881Z,23.32
2019-03-30T10:39:51.273Z,18.92
2019-03-30T10:44:53.578Z,20.68
2019-03-30T10:49:55.868Z,18.30
2019-03-30T10:54:58.160Z,22.27
2019-03-30T11:00:00.599Z,16.48
2019-03-30T11:05:03.136Z,22.65
2019-03-30T11:10:06.340Z,23.77
2019-03-30T11:15:08.820Z,22.02
2019-03-30T11:20:11.335Z,23.75
2019-03-30T11:25:13.728Z,16.23
2019-03-30T11:30:16.107Z,20.85
2019-03-30T11:35:18.658Z,24.30
2019-03-30T11:40:21.023Z,17.85
2019-03-30T11:45:23.845Z,17.25
2019-03-30T11:50:26.184Z,23.15
2019-03-30T11:55:28.534Z,22.27
2019-03-30T12:00:31.239Z,20.20
2019-03-30T12:05:33.575Z,22.25
2019-03-30T12:10:35.882Z,15.03
2019-03-30T12:15:38.258Z,13.20
2019-03-30T12:20:41.051Z,18.05
2019-03-30T12:25:43.305Z,12.40
2019-03-30T12:30:45.645Z,8.60
2019-03-30T12:35:47.946Z,10.55
2019-03-30T12:40:50.358Z,14.75
2019-03-30T12:45:53.234Z,8.98
2019-03-30T12:50:55.604Z,8.40
2019-03-30T12:55:58.215Z,14.45
2019-03-30T13:01:00.589Z,6.00
2019-03-30T13:06:02.993Z,15.95
2019-03-30T13:11:05.317Z,14.58
2019-03-30T13:16:07.610Z,17.67
2019-03-30T13:21:10.576Z,11.22
2019-03-30T13:26:12.880Z,11.28
2019-03-30T13:31:15.239Z,17.75
2019-03-30T13:36:17.716Z,10.13
2019-03-30T13:41:19.972Z,9.38
2019-03-30T13:46:22.242Z,9.93
2019-03-30T13:51:24.612Z,8.98
2019-03-30T13:56:27.428Z,15.75
2019-03-30T14:01:29.702Z,8.75
2019-03-30T14:06:32.016Z,17.27
2019-03-30T14:11:34.410Z,9.43
2019-03-30T14:16:36.672Z,8.30
2019-03-30T14:21:38.966Z,11.90
2019-03-30T14:26:41.266Z,6.50
2019-03-30T14:31:43.650Z,10.85
2019-03-30T14:36:46.140Z,10.50
2019-03-30T14:41:48.485Z,8.23
2019-03-30T14:46:50.797Z,10.95
2019-03-30T14:51:53.086Z,8.13
2019-03-30T14:56:55.391Z,10.88
2019-03-30T15:01:57.775Z,7.12
2019-03-30T15:07:00.172Z,6.22
2019-03-30T15:12:02.488Z,9.35
2019-03-30T15:17:04.903Z,14.68
2019-03-30T15:22:07.279Z,7.50
2019-03-30T15:27:09.656Z,6.00
2019-03-30T15:32:11.923Z,7.42
2019-03-30T15:37:14.478Z,7.97
2019-03-30T15:42:16.770Z,8.90
2019-03-30T15:47:19.020Z,7.70
2019-03-30T15:52:21.380Z,7.42
2019-03-30T15:57:25.354Z,7.20
2019-03-30T16:02:27.706Z,9.38
2019-03-30T16:07:30.016Z,9.65
2019-03-30T16:12:32.421Z,7.10
2019-03-30T16:17:34.706Z,8.23
2019-03-30T16:22:36.984Z,8.05
2019-03-30T16:27:39.698Z,11.03
2019-03-30T16:32:42.239Z,13.95
2019-03-30T16:37:44.518Z,11.70
2019-03-30T16:42:47.273Z,10.20
2019-03-30T16:47:50.542Z,14.20
2019-03-30T16:52:52.812Z,10.63
2019-03-30T16:57:55.107Z,6.28
2019-03-30T17:02:57.401Z,9.83
2019-03-30T17:07:59.665Z,7.47
2019-03-30T17:13:01.973Z,11.08
2019-03-30T17:18:04.342Z,11.30
2019-03-30T17:23:06.695Z,17.52
2019-03-30T17:28:09.075Z,17.05
2019-03-30T17:33:11.395Z,18.07
2019-03-30T17:38:13.710Z,15.10
2019-03-30T17:43:16.042Z,16.05
2019-03-30T17:48:18.355Z,14.10
2019-03-30T17:53:21.094Z,15.90
2019-03-30T17:58:23.498Z,8.53
2019-03-30T18:03:25.749Z,11.20
2019-03-30T18:08:28.037Z,8.85
2019-03-30T18:13:30.316Z,14.07
2019-03-30T18:18:32.612Z,16.57
2019-03-30T18:23:34.937Z,12.23
2019-03-30T18:28:37.511Z,22.53
2019-03-30T18:33:39.804Z,20.55
2019-03-30T18:38:42.377Z,26.60
2019-03-30T18:43:44.797Z,19.92
2019-03-30T18:48:47.171Z,22.25
2019-03-30T18:53:49.898Z,18.10
2019-03-30T18:58:52.422Z,22.27
2019-03-30T19:03:54.977Z,15.57
2019-03-30T19:08:57.542Z,18.57
2019-03-30T19:14:00.314Z,19.73
2019-03-30T19:19:02.710Z,35.07
2019-03-30T19:24:05.223Z,24.90
2019-03-30T19:29:07.924Z,30.93
2019-03-30T19:34:10.390Z,31.30
2019-03-30T19:39:13.135Z,58.13
2019-03-30T19:44:15.453Z,24.23
2019-03-30T19:49:17.907Z,23.13
2019-03-30T19:54:20.942Z,20.30
2019-03-30T19:59:23.404Z,29.90
2019-03-30T20:04:26.101Z,24.70
2019-03-30T20:09:28.657Z,24.00
2019-03-30T20:14:31.242Z,19.50
2019-03-30T20:19:33.571Z,14.23
2019-03-30T20:24:36.192Z,15.90
2019-03-30T20:29:38.496Z,19.50
2019-03-30T20:34:40.906Z,18.50
2019-03-30T20:39:43.239Z,20.47
2019-03-30T20:44:45.547Z,19.60
2019-03-30T20:49:48.031Z,21.47
2019-03-30T20:54:50.372Z,19.10
2019-03-30T20:59:52.773Z,20.88
2019-03-30T21:04:55.188Z,19.43
2019-03-30T21:09:57.570Z,22.43
2019-03-30T21:14:59.990Z,23.00
2019-03-30T21:20:02.366Z,17.57
2019-03-30T21:25:05.297Z,14.43
2019-03-30T21:30:08.346Z,19.40
2019-03-30T21:35:10.742Z,17.90
2019-03-30T21:40:13.133Z,15.43
2019-03-30T21:45:15.470Z,15.73
2019-03-30T21:50:17.877Z,14.60
2019-03-30T21:55:20.290Z,15.63
2019-03-30T22:00:35.700Z,16.67
2019-03-30T22:05:38.112Z,16.60
2019-03-30T22:10:43.326Z,15.60
2019-03-30T22:15:45.791Z,14.10
2019-03-30T22:20:48.082Z,16.30
2019-03-30T22:25:50.761Z,26.97
2019-03-30T22:30:53.146Z,31.17
2019-03-30T22:35:55.442Z,20.70
2019-03-30T22:40:57.801Z,14.67
2019-03-30T22:46:00.092Z,19.77
2019-03-30T22:51:02.395Z,17.77
2019-03-30T22:56:04.694Z,24.40
2019-03-30T23:01:08.631Z,16.10
2019-03-30T23:06:11.171Z,14.10
2019-03-30T23:11:13.465Z,12.57
2019-03-30T23:16:15.745Z,14.23
2019-03-30T23:21:18.119Z,23.77
2019-03-30T23:26:20.540Z,12.40
2019-03-30T23:31:22.905Z,16.43
2019-03-30T23:36:25.250Z,16.67
2019-03-30T23:41:29.220Z,16.47
2019-03-30T23:46:31.529Z,15.50
2019-03-30T23:51:33.935Z,15.27
2019-03-30T23:56:36.225Z,13.90
